Time;durP1;ratioP1;P1;durP2;ratioP2;P2;SDS_P1;SDS_P2;PMS_P1;PMS_P2;Temp;Humidity;BMP_temperature;BMP_pressure;BME280_temperature;BME280_humidity;BME280_pressure;Samples;Min_cycle;Max_cycle;Signal;HPM_P1;HPM_P2
2023/10/31 00:01:24;;;;;;;2.63;2.53;;;14.80;99.90;;;;;;5028005;28;20033;-92
2023/10/31 00:03:49;;;;;;;2.40;2.30;;;14.10;99.90;;;;;;5029624;28;20044;-91
2023/10/31 00:06:15;;;;;;;2.45;2.35;;;14.70;99.90;;;;;;5030819;28;20047;-91
2023/10/31 00:08:41;;;;;;;3.20;3.00;;;14.30;99.90;;;;;;5033621;28;20044;-91
2023/10/31 00:11:07;;;;;;;3.22;3.03;;;14.60;99.90;;;;;;5032690;28;20037;-91
2023/10/31 00:13:33;;;;;;;2.97;2.78;;;14.20;99.90;;;;;;5033530;28;20045;-92
2023/10/31 00:15:58;;;;;;;3.33;3.13;;;14.80;99.90;;;;;;5032046;28;20041;-91
2023/10/31 00:18:24;;;;;;;2.97;2.80;;;14.70;99.90;;;;;;5030079;28;20049;-90
2023/10/31 00:20:50;;;;;;;2.55;2.45;;;14.10;99.90;;;;;;5031387;28;20041;-90
2023/10/31 00:23:15;;;;;;;3.17;2.97;;;14.70;99.90;;;;;;5030757;28;20040;-89
2023/10/31 00:25:41;;;;;;;3.45;3.25;;;14.30;99.90;;;;;;5030663;28;20041;-88
2023/10/31 00:28:07;;;;;;;3.28;3.08;;;14.40;99.90;;;;;;5042704;28;20085;-88
2023/10/31 00:30:33;;;;;;;3.17;2.97;;;14.40;99.90;;;;;;5042175;28;20498;-87
2023/10/31 00:32:58;;;;;;;2.60;2.50;;;14.00;99.90;;;;;;5037779;28;20049;-88
2023/10/31 00:35:24;;;;;;;2.72;2.60;;;14.40;99.90;;;;;;5036454;28;20516;-87
2023/10/31 00:37:50;;;;;;;2.20;2.10;;;14.60;99.90;;;;;;5042958;28;20087;-85
2023/10/31 00:40:16;;;;;;;3.08;2.88;;;14.60;99.90;;;;;;5039833;28;20102;-86
2023/10/31 00:42:42;;;;;;;3.20;3.00;;;14.80;99.90;;;;;;5024657;28;20048;-85
2023/10/31 00:45:08;;;;;;;2.58;2.47;;;14.00;99.90;;;;;;5041392;28;20057;-85
2023/10/31 00:47:35;;;;;;;2.35;2.25;;;14.90;99.90;;;;;;5038574;28;20053;-86
2023/10/31 00:50:01;;;;;;;2.10;2.00;;;14.40;99.90;;;;;;5038724;28;20113;-85
2023/10/31 00:52:27;;;;;;;2.35;2.25;;;14.00;99.90;;;;;;5038187;28;20510;-86
2023/10/31 00:54:53;;;;;;;2.38;2.28;;;13.80;99.90;;;;;;5040275;28;20040;-86
2023/10/31 00:57:18;;;;;;;2.70;2.60;;;14.80;99.90;;;;;;5042139;28;20049;-85
2023/10/31 00:59:44;;;;;;;2.83;2.70;;;14.40;99.90;;;;;;5021510;28;20088;-86
2023/10/31 01:02:09;;;;;;;2.40;2.30;;;15.00;99.90;;;;;;5040481;28;20498;-86
2023/10/31 01:04:38;;;;;;;2.33;2.22;;;14.70;99.90;;;;;;5023215;28;20049;-86
2023/10/31 01:07:04;;;;;;;2.88;2.75;;;14.90;99.90;;;;;;5023397;28;20139;-87
2023/10/31 01:09:30;;;;;;;2.40;2.30;;;14.90;99.90;;;;;;5041886;28;20140;-86
2023/10/31 01:11:56;;;;;;;2.67;2.58;;;14.50;99.90;;;;;;5041132;28;20509;-86
2023/10/31 01:14:21;;;;;;;2.50;2.40;;;13.90;99.90;;;;;;5023808;28;20048;-85
2023/10/31 01:16:47;;;;;;;2.58;2.47;;;14.80;99.90;;;;;;5039848;28;20057;-86
2023/10/31 01:19:13;;;;;;;2.15;2.05;;;14.10;99.90;;;;;;5041199;28;20090;-85
2023/10/31 01:21:39;;;;;;;2.22;2.13;;;14.90;99.90;;;;;;5024694;28;20041;-85
2023/10/31 01:24:05;;;;;;;2.28;2.17;;;13.90;99.90;;;;;;5040237;28;20468;-85
2023/10/31 01:26:30;;;;;;;2.17;2.08;;;14.90;99.90;;;;;;5024017;28;20045;-84
2023/10/31 01:28:56;;;;;;;2.53;2.42;;;14.20;99.90;;;;;;5024051;28;20958;-84
2023/10/31 01:31:22;;;;;;;2.40;2.30;;;14.90;99.90;;;;;;5037519;28;20128;-85
2023/10/31 01:33:47;;;;;;;2.50;2.40;;;14.70;99.90;;;;;;5025127;28;20126;-85
2023/10/31 01:36:14;;;;;;;2.85;2.72;;;14.80;99.90;;;;;;5022662;28;20044;-85
2023/10/31 01:38:40;;;;;;;2.15;2.05;;;14.10;99.90;;;;;;5044166;28;20568;-86
2023/10/31 01:41:06;;;;;;;2.67;2.58;;;14.00;99.90;;;;;;5024177;28;20074;-85
2023/10/31 01:43:37;;;;;;;2.53;2.42;;;14.00;99.90;;;;;;5038438;28;20045;-85
2023/10/31 01:46:03;;;;;;;2.50;2.40;;;14.00;99.90;;;;;;5040715;28;20452;-85
2023/10/31 01:48:33;;;;;;;2.67;2.58;;;14.30;99.90;;;;;;5036916;28;20045;-84
2023/10/31 01:51:01;;;;;;;2.47;2.38;;;14.20;99.90;;;;;;5039397;28;20053;-85
2023/10/31 01:53:29;;;;;;;2.33;2.22;;;14.20;99.90;;;;;;5039168;28;20091;-85
2023/10/31 01:55:56;;;;;;;2.30;2.20;;;14.20;99.90;;;;;;5037264;28;20091;-85
2023/10/31 01:58:27;;;;;;;2.00;1.90;;;14.10;99.90;;;;;;5039935;28;20045;-87
2023/10/31 02:00:55;;;;;;;2.92;2.78;;;14.60;99.90;;;;;;5039355;28;20040;-87
2023/10/31 02:03:21;;;;;;;3.17;2.97;;;14.40;99.90;;;;;;5036558;28;20130;-86
2023/10/31 02:05:47;;;;;;;2.70;2.60;;;13.80;99.90;;;;;;5037014;28;20041;-85
2023/10/31 02:08:12;;;;;;;2.42;2.33;;;13.80;99.90;;;;;;5035617;28;20082;-90
2023/10/31 02:10:38;;;;;;;2.47;2.38;;;13.90;99.90;;;;;;5037003;28;20054;-85
2023/10/31 02:13:14;;;;;;;2.75;2.65;;;13.50;99.90;;;;;;5036863;28;20045;-86
2023/10/31 02:15:40;;;;;;;2.63;2.53;;;13.70;99.90;;;;;;5021908;28;20041;-84
2023/10/31 02:18:06;;;;;;;2.30;2.20;;;13.40;99.90;;;;;;5037734;28;20130;-87
2023/10/31 02:20:32;;;;;;;3.67;3.47;;;13.20;99.90;;;;;;5038541;28;20051;-88
2023/10/31 02:22:58;;;;;;;2.45;2.35;;;13.40;99.90;;;;;;5038089;28;20139;-88
2023/10/31 02:25:24;;;;;;;2.80;2.70;;;13.30;99.90;;;;;;5039494;28;20052;-85
2023/10/31 02:27:49;;;;;;;2.88;2.78;;;13.00;99.90;;;;;;5041925;28;20041;-85
2023/10/31 02:30:15;;;;;;;2.70;2.60;;;13.20;99.90;;;;;;5042742;28;20510;-87
2023/10/31 02:32:41;;;;;;;2.70;2.60;;;13.00;99.90;;;;;;5039019;28;20090;-86
2023/10/31 02:35:08;;;;;;;2.75;2.65;;;13.00;99.90;;;;;;5026254;28;20064;-87
2023/10/31 02:37:34;;;;;;;2.70;2.60;;;12.90;99.90;;;;;;5040902;28;20049;-89
2023/10/31 02:40:00;;;;;;;2.60;2.50;;;12.70;99.90;;;;;;5041797;28;20490;-86
2023/10/31 02:42:26;;;;;;;2.47;2.38;;;12.50;99.90;;;;;;5041731;28;20371;-85
2023/10/31 02:44:52;;;;;;;2.13;2.03;;;12.50;99.90;;;;;;5039163;28;20045;-88
2023/10/31 02:47:18;;;;;;;2.25;2.15;;;12.40;99.90;;;;;;5024875;28;20094;-87
2023/10/31 02:49:44;;;;;;;2.65;2.55;;;12.50;99.90;;;;;;5041243;28;20037;-91
2023/10/31 02:52:10;;;;;;;2.00;1.90;;;12.30;99.90;;;;;;5027918;28;20128;-88
2023/10/31 02:54:36;;;;;;;1.95;1.85;;;12.60;99.90;;;;;;5024869;28;20040;-86
2023/10/31 02:57:02;;;;;;;1.90;1.80;;;12.40;99.90;;;;;;5042415;28;20088;-85
2023/10/31 02:59:27;;;;;;;1.95;1.85;;;12.40;99.90;;;;;;5026189;28;20078;-89
2023/10/31 03:01:56;;;;;;;1.88;1.77;;;12.30;99.90;;;;;;5043040;28;20693;-87
2023/10/31 03:04:22;;;;;;;2.00;1.90;;;12.30;99.90;;;;;;5045078;28;20488;-86
2023/10/31 03:06:48;;;;;;;2.45;2.35;;;12.30;99.90;;;;;;5044447;28;20136;-86
2023/10/31 03:09:14;;;;;;;3.00;2.88;;;12.50;99.90;;;;;;5026471;28;20048;-85
2023/10/31 03:11:40;;;;;;;2.85;2.75;;;12.20;99.90;;;;;;5043825;28;20049;-85
2023/10/31 03:14:05;;;;;;;2.20;2.10;;;12.40;99.90;;;;;;5044075;28;20067;-85
2023/10/31 03:16:32;;;;;;;1.88;1.77;;;12.00;99.90;;;;;;5042662;28;20389;-87
2023/10/31 03:18:58;;;;;;;2.00;1.90;;;12.00;99.90;;;;;;5044501;28;20441;-85
2023/10/31 03:21:25;;;;;;;1.95;1.85;;;12.00;99.90;;;;;;5027562;28;20163;-86
2023/10/31 03:23:53;;;;;;;2.00;1.90;;;12.20;99.90;;;;;;5028912;28;20048;-85
2023/10/31 03:26:19;;;;;;;1.70;1.60;;;12.40;99.90;;;;;;5045979;28;20055;-85
2023/10/31 03:28:45;;;;;;;2.17;2.08;;;12.30;99.90;;;;;;5025518;28;20156;-88
2023/10/31 03:31:12;;;;;;;1.85;1.75;;;12.00;99.90;;;;;;5029067;28;20049;-86
2023/10/31 03:33:38;;;;;;;1.85;1.75;;;12.40;99.90;;;;;;5043648;28;20135;-87
2023/10/31 03:36:05;;;;;;;1.83;1.73;;;12.50;99.90;;;;;;5028326;28;20128;-87
2023/10/31 03:38:37;;;;;;;1.85;1.75;;;12.30;99.90;;;;;;5043536;28;20150;-86
2023/10/31 03:41:03;;;;;;;1.85;1.75;;;12.50;99.90;;;;;;5043470;28;20048;-88
2023/10/31 03:43:29;;;;;;;2.17;2.08;;;12.50;99.90;;;;;;5041901;28;20067;-88
2023/10/31 03:45:55;;;;;;;1.77;1.67;;;12.10;99.90;;;;;;5026693;28;20033;-86
2023/10/31 03:48:21;;;;;;;2.00;1.90;;;12.00;99.90;;;;;;5044818;28;20041;-87
2023/10/31 03:50:46;;;;;;;1.85;1.75;;;12.50;99.90;;;;;;5028653;28;20501;-86
2023/10/31 03:53:12;;;;;;;1.80;1.70;;;12.10;99.90;;;;;;5044009;28;20029;-86
2023/10/31 03:55:38;;;;;;;1.70;1.60;;;12.10;99.90;;;;;;5044712;28;20426;-86
2023/10/31 03:58:04;;;;;;;1.75;1.65;;;12.10;99.90;;;;;;5041263;28;20146;-85
2023/10/31 04:00:30;;;;;;;1.70;1.60;;;12.10;99.90;;;;;;5044495;28;20075;-85
2023/10/31 04:02:55;;;;;;;1.50;1.48;;;12.10;99.90;;;;;;5043944;28;20040;-86
2023/10/31 04:05:22;;;;;;;1.58;1.52;;;12.30;99.90;;;;;;5042637;28;20049;-85
2023/10/31 04:07:48;;;;;;;1.52;1.48;;;12.30;99.90;;;;;;5045318;28;20060;-85
2023/10/31 04:10:15;;;;;;;1.45;1.45;;;12.70;99.90;;;;;;5041751;28;20055;-85
2023/10/31 04:12:41;;;;;;;1.52;1.52;;;12.30;99.90;;;;;;5027679;28;20060;-87
2023/10/31 04:15:08;;;;;;;1.63;1.55;;;12.50;99.90;;;;;;5044160;28;20059;-86
2023/10/31 04:17:34;;;;;;;2.28;2.17;;;12.60;99.90;;;;;;5029649;28;20505;-86
2023/10/31 04:20:00;;;;;;;1.55;1.52;;;12.40;99.90;;;;;;5045974;28;20071;-88
2023/10/31 04:22:26;;;;;;;1.55;1.52;;;12.50;99.90;;;;;;5029638;28;20041;-85
2023/10/31 04:24:52;;;;;;;1.80;1.70;;;12.10;99.90;;;;;;5043861;28;20052;-85
2023/10/31 04:27:17;;;;;;;1.52;1.50;;;12.70;99.90;;;;;;5043844;28;20130;-85
2023/10/31 04:29:44;;;;;;;2.22;2.13;;;12.60;99.90;;;;;;5025773;28;20071;-86
2023/10/31 04:32:10;;;;;;;1.48;1.45;;;12.70;99.90;;;;;;5024392;28;20078;-85
2023/10/31 04:34:35;;;;;;;2.00;1.90;;;12.50;99.90;;;;;;5026769;28;20029;-86
2023/10/31 04:37:02;;;;;;;1.92;1.83;;;12.70;99.90;;;;;;5044197;28;20053;-86
2023/10/31 04:39:27;;;;;;;1.60;1.55;;;12.50;99.90;;;;;;5044277;28;20049;-87
2023/10/31 04:41:53;;;;;;;1.58;1.52;;;12.10;99.90;;;;;;5044697;28;20040;-86
2023/10/31 04:44:19;;;;;;;1.60;1.55;;;12.60;99.90;;;;;;5042285;28;20697;-85
2023/10/31 04:46:44;;;;;;;1.40;1.40;;;12.00;99.90;;;;;;5044962;28;20056;-85
2023/10/31 04:49:10;;;;;;;1.92;1.83;;;12.50;99.90;;;;;;5044706;28;20195;-87
2023/10/31 04:51:37;;;;;;;2.00;1.90;;;12.30;99.90;;;;;;5028535;28;20079;-85
2023/10/31 04:54:03;;;;;;;1.35;1.35;;;12.20;99.90;;;;;;5043229;28;20467;-86
2023/10/31 04:56:29;;;;;;;2.00;1.90;;;12.40;99.90;;;;;;5043981;28;20053;-85
2023/10/31 04:58:54;;;;;;;1.90;1.80;;;12.00;99.90;;;;;;5044360;28;20067;-86
2023/10/31 05:01:20;;;;;;;1.45;1.45;;;12.50;99.90;;;;;;5042317;28;20045;-86
2023/10/31 05:03:46;;;;;;;2.03;1.92;;;12.00;99.90;;;;;;5027478;28;20049;-85
2023/10/31 05:06:11;;;;;;;1.95;1.85;;;12.50;99.90;;;;;;5026304;28;20037;-85
2023/10/31 05:08:37;;;;;;;1.33;1.33;;;12.30;99.90;;;;;;5041340;28;20559;-86
2023/10/31 05:11:03;;;;;;;1.92;1.83;;;12.20;99.90;;;;;;5010197;28;20152;-83
2023/10/31 05:13:29;;;;;;;1.75;1.65;;;12.00;99.90;;;;;;5025636;28;20041;-85
2023/10/31 05:15:55;;;;;;;1.25;1.25;;;12.20;99.90;;;;;;5043126;28;20487;-85
2023/10/31 05:18:20;;;;;;;2.03;1.92;;;12.00;99.90;;;;;;5039808;28;20131;-84
2023/10/31 05:20:46;;;;;;;1.27;1.27;;;12.40;99.90;;;;;;5043029;28;20041;-84
2023/10/31 05:23:12;;;;;;;1.35;1.35;;;12.30;99.90;;;;;;5041745;28;20465;-85
2023/10/31 05:25:38;;;;;;;1.42;1.42;;;12.50;99.90;;;;;;5043901;28;20041;-86
2023/10/31 05:28:04;;;;;;;1.42;1.42;;;11.90;99.90;;;;;;5025420;28;20048;-85
2023/10/31 05:30:30;;;;;;;1.95;1.85;;;12.10;99.90;;;;;;5040506;28;20048;-85
2023/10/31 05:32:56;;;;;;;1.33;1.33;;;12.40;99.90;;;;;;5041403;28;20402;-84
2023/10/31 05:35:22;;;;;;;1.98;1.88;;;12.30;99.90;;;;;;5041051;28;20040;-85
2023/10/31 05:37:48;;;;;;;1.45;1.45;;;12.10;99.90;;;;;;5043507;28;20037;-86
2023/10/31 05:40:15;;;;;;;1.38;1.38;;;12.20;99.90;;;;;;5026610;28;20064;-86
2023/10/31 05:42:40;;;;;;;1.25;1.25;;;12.40;99.90;;;;;;5026464;28;20108;-86
2023/10/31 05:45:06;;;;;;;1.90;1.80;;;12.20;99.90;;;;;;5041519;28;20213;-86
2023/10/31 05:47:35;;;;;;;1.27;1.27;;;12.40;99.90;;;;;;5043143;28;20737;-86
2023/10/31 05:50:00;;;;;;;2.00;1.90;;;11.90;99.90;;;;;;5042551;28;20558;-87
2023/10/31 05:52:29;;;;;;;1.23;1.23;;;12.30;99.90;;;;;;5039832;28;20041;-87
2023/10/31 05:54:55;;;;;;;2.15;2.05;;;12.00;99.90;;;;;;5026003;28;20056;-87
2023/10/31 05:57:21;;;;;;;1.98;1.88;;;11.90;99.90;;;;;;5041522;28;20129;-87
2023/10/31 05:59:47;;;;;;;1.35;1.35;;;11.90;99.90;;;;;;5043296;28;20155;-87
2023/10/31 06:02:14;;;;;;;1.25;1.25;;;11.90;99.90;;;;;;5038199;28;20128;-87
2023/10/31 06:04:39;;;;;;;1.17;1.17;;;12.00;99.90;;;;;;5041611;28;20505;-87
2023/10/31 06:07:06;;;;;;;1.80;1.70;;;12.40;99.90;;;;;;5041452;28;20057;-89
2023/10/31 06:09:33;;;;;;;1.27;1.27;;;12.10;99.90;;;;;;5041613;28;20044;-87
2023/10/31 06:11:59;;;;;;;1.25;1.25;;;12.40;99.90;;;;;;5041185;28;20047;-86
2023/10/31 06:14:25;;;;;;;1.27;1.27;;;12.30;99.90;;;;;;5022456;28;20098;-86
2023/10/31 06:16:51;;;;;;;1.60;1.50;;;12.10;99.90;;;;;;5040799;28;20044;-86
2023/10/31 06:19:17;;;;;;;1.23;1.23;;;12.20;99.90;;;;;;5041447;28;20559;-87
2023/10/31 06:21:43;;;;;;;1.67;1.58;;;12.00;99.90;;;;;;5024068;28;20120;-88
2023/10/31 06:24:09;;;;;;;1.30;1.30;;;12.20;99.90;;;;;;5042924;28;20044;-86
2023/10/31 06:26:34;;;;;;;1.38;1.38;;;11.90;99.90;;;;;;5042816;28;20037;-87
2023/10/31 06:29:00;;;;;;;1.33;1.33;;;11.90;99.90;;;;;;5025950;28;20665;-86
2023/10/31 06:31:26;;;;;;;1.33;1.33;;;12.20;99.90;;;;;;5042268;28;20090;-87
2023/10/31 06:33:52;;;;;;;1.70;1.60;;;11.90;99.90;;;;;;5043567;28;20045;-88
2023/10/31 06:36:17;;;;;;;1.35;1.35;;;12.20;99.90;;;;;;5046258;28;20128;-86
2023/10/31 06:38:43;;;;;;;1.25;1.25;;;11.90;99.90;;;;;;5045347;28;20073;-88
2023/10/31 06:41:09;;;;;;;1.80;1.70;;;12.00;99.90;;;;;;5027585;28;20041;-87
2023/10/31 06:43:34;;;;;;;1.35;1.35;;;12.30;99.90;;;;;;5047235;28;20055;-87
2023/10/31 06:46:02;;;;;;;1.25;1.25;;;12.30;99.90;;;;;;5046186;28;20135;-87
2023/10/31 06:48:27;;;;;;;1.33;1.33;;;12.20;99.90;;;;;;5045822;28;20114;-86
2023/10/31 06:50:53;;;;;;;1.55;1.45;;;11.90;99.90;;;;;;5047139;28;20052;-87
2023/10/31 06:53:19;;;;;;;1.30;1.30;;;12.30;99.90;;;;;;5047372;28;20045;-87
2023/10/31 06:55:45;;;;;;;1.33;1.33;;;12.30;99.90;;;;;;5028832;28;20045;-89
2023/10/31 06:58:11;;;;;;;1.27;1.27;;;12.10;99.90;;;;;;5031151;28;20085;-87
2023/10/31 07:00:37;;;;;;;1.70;1.60;;;12.30;99.90;;;;;;5046428;28;20677;-92
2023/10/31 07:03:08;;;;;;;1.25;1.25;;;12.00;99.90;;;;;;5049518;28;20045;-88
2023/10/31 07:05:37;;;;;;;1.60;1.50;;;11.90;99.90;;;;;;5047727;28;20211;-89
2023/10/31 07:08:03;;;;;;;1.27;1.27;;;12.40;99.90;;;;;;5027561;28;20040;-92
2023/10/31 07:10:29;;;;;;;1.27;1.27;;;11.90;99.90;;;;;;5046468;28;20073;-89
2023/10/31 07:12:55;;;;;;;1.77;1.67;;;12.00;99.90;;;;;;5031191;28;20043;-87
2023/10/31 07:15:21;;;;;;;1.17;1.17;;;12.30;99.90;;;;;;5047714;28;20872;-86
2023/10/31 07:17:47;;;;;;;1.73;1.63;;;12.00;99.90;;;;;;5032058;28;20056;-89
2023/10/31 07:20:13;;;;;;;1.30;1.30;;;12.00;99.90;;;;;;5048367;28;20053;-90
2023/10/31 07:22:39;;;;;;;1.27;1.27;;;12.50;99.90;;;;;;5049438;28;20414;-90
2023/10/31 07:25:06;;;;;;;1.20;1.20;;;12.00;99.90;;;;;;5049709;28;20174;-91
2023/10/31 07:27:32;;;;;;;1.17;1.17;;;12.40;99.90;;;;;;5031637;28;20041;-92
2023/10/31 07:30:06;;;;;;;1.17;1.17;;;12.10;99.90;;;;;;5034790;28;20045;-87
2023/10/31 07:32:31;;;;;;;;;;;12.50;99.90;;;;;;5050549;28;20800;-91
2023/10/31 07:34:57;;;;;;;1.33;1.33;;;12.60;99.90;;;;;;5034391;28;19950;-89
2023/10/31 07:37:23;;;;;;;1.20;1.20;;;12.10;99.90;;;;;;5049177;28;20080;-88
2023/10/31 07:39:50;;;;;;;1.23;1.23;;;12.60;99.90;;;;;;5050783;28;20125;-90
2023/10/31 07:42:16;;;;;;;1.23;1.23;;;12.60;99.90;;;;;;5049095;28;20045;-91
2023/10/31 07:44:42;;;;;;;1.60;1.50;;;12.60;99.90;;;;;;5034198;28;20443;-89
2023/10/31 07:47:07;;;;;;;1.20;1.20;;;12.40;99.90;;;;;;5050141;28;20045;-90
2023/10/31 07:49:33;;;;;;;1.20;1.20;;;12.20;99.90;;;;;;5032170;28;20044;-94
2023/10/31 07:51:59;;;;;;;1.55;1.45;;;12.40;99.90;;;;;;5034091;28;20037;-90
2023/10/31 07:54:25;;;;;;;1.13;1.13;;;12.60;99.90;;;;;;5034804;28;20045;-90
2023/10/31 07:56:50;;;;;;;1.15;1.15;;;12.50;99.90;;;;;;5051446;28;20045;-91
2023/10/31 07:59:16;;;;;;;1.20;1.20;;;12.40;99.90;;;;;;5034458;28;20049;-90
2023/10/31 08:01:42;;;;;;;1.55;1.45;;;12.40;99.90;;;;;;5049558;28;20037;-91
2023/10/31 08:04:08;;;;;;;1.92;1.83;;;12.80;99.90;;;;;;5034585;28;20059;-92
2023/10/31 08:06:36;;;;;;;1.20;1.20;;;12.40;99.90;;;;;;5045890;28;20053;-92
2023/10/31 08:09:02;;;;;;;1.23;1.23;;;12.40;99.90;;;;;;5029527;28;20075;-89
2023/10/31 08:11:28;;;;;;;1.27;1.27;;;12.80;99.90;;;;;;5046533;28;20130;-91
2023/10/31 08:13:54;;;;;;;1.25;1.25;;;12.60;99.90;;;;;;5032442;28;20659;-91
2023/10/31 08:16:20;;;;;;;1.20;1.20;;;12.60;99.90;;;;;;5045472;28;20049;-91
2023/10/31 08:18:55;;;;;;;1.27;1.27;;;13.10;99.90;;;;;;5029892;28;20037;-95
2023/10/31 08:21:23;;;;;;;1.92;1.83;;;12.60;99.90;;;;;;5022009;28;20048;-94
2023/10/31 08:23:49;;;;;;;1.30;1.30;;;12.60;99.90;;;;;;5029386;28;20118;-93
2023/10/31 08:26:17;;;;;;;1.73;1.63;;;12.80;99.90;;;;;;5034083;28;20139;-95
2023/10/31 08:28:53;;;;;;;1.30;1.30;;;12.80;99.90;;;;;;5035032;28;20088;-94
2023/10/31 08:31:22;;;;;;;1.30;1.30;;;13.40;99.90;;;;;;5035956;28;20048;-93
2023/10/31 08:33:54;;;;;;;1.17;1.17;;;13.00;99.90;;;;;;5033596;28;20206;-93
2023/10/31 08:36:25;;;;;;;1.33;1.33;;;13.20;99.90;;;;;;5035302;28;20083;-91
2023/10/31 08:38:51;;;;;;;1.33;1.33;;;13.50;99.90;;;;;;5032587;28;20049;-90
2023/10/31 08:41:46;;;;;;;1.33;1.33;;;13.40;99.90;;;;;;5035260;28;20041;-95
2023/10/31 08:44:44;;;;;;;1.30;1.30;;;13.50;99.90;;;;;;5031588;28;20060;-94
2023/10/31 08:47:13;;;;;;;12.10;5.47;;;13.60;99.90;;;;;;5034513;28;20041;-96
2023/10/31 08:50:44;;;;;;;1.50;1.45;;;13.60;99.90;;;;;;5051138;28;20044;-96
2023/10/31 08:53:10;;;;;;;1.73;1.63;;;13.70;99.90;;;;;;5034643;28;20045;-93
2023/10/31 08:55:36;;;;;;;2.25;2.15;;;13.90;99.90;;;;;;5034719;28;20104;-95
2023/10/31 08:58:01;;;;;;;2.13;2.03;;;13.80;99.90;;;;;;5035141;28;20128;-95
2023/10/31 09:00:31;;;;;;;2.08;1.98;;;13.70;99.90;;;;;;5052500;28;20036;-94
2023/10/31 09:03:15;;;;;;;2.67;2.58;;;13.80;99.90;;;;;;5031946;28;20107;-96
2023/10/31 09:05:44;;;;;;;2.35;2.25;;;13.70;99.90;;;;;;5031874;28;20053;-92
2023/10/31 09:08:36;;;;;;;2.10;2.00;;;13.90;99.90;;;;;;5033000;28;20049;-95
2023/10/31 09:11:41;;;;;;;1.98;1.88;;;14.00;99.90;;;;;;5024783;28;20515;-94
2023/10/31 09:14:20;;;;;;;2.80;2.70;;;14.00;99.90;;;;;;4978565;28;20116;-95
2023/10/31 09:16:55;;;;;;;2.20;2.10;;;14.10;99.90;;;;;;5022202;28;20072;-95
2023/10/31 09:19:23;;;;;;;2.22;2.13;;;14.20;99.90;;;;;;5033550;28;20044;-91
2023/10/31 09:21:48;;;;;;;1.90;1.80;;;14.10;99.90;;;;;;5049135;28;20037;-89
2023/10/31 09:24:14;;;;;;;2.25;2.15;;;14.30;99.90;;;;;;5031702;28;20045;-91
2023/10/31 09:26:43;;;;;;;2.17;2.08;;;14.40;99.90;;;;;;5035194;28;20056;-94
2023/10/31 09:29:16;;;;;;;1.80;1.70;;;14.70;99.90;;;;;;5033757;28;20086;-93
2023/10/31 09:31:51;;;;;;;1.95;1.85;;;15.00;99.90;;;;;;5035001;28;20076;-93
2023/10/31 09:34:37;;;;;;;3.03;2.83;;;14.80;99.90;;;;;;5034047;28;20041;-90
2023/10/31 09:37:18;;;;;;;2.50;2.40;;;14.40;99.90;;;;;;5049797;28;20127;-96
2023/10/31 09:39:46;;;;;;;4.05;3.85;;;14.50;99.90;;;;;;5034013;28;20101;-90
2023/10/31 09:42:13;;;;;;;3.13;2.92;;;14.60;99.90;;;;;;5034645;28;20128;-94
2023/10/31 09:44:47;;;;;;;2.97;2.80;;;14.70;99.90;;;;;;5034315;28;20060;-94
2023/10/31 09:47:17;;;;;;;3.35;3.15;;;14.70;99.90;;;;;;5030479;28;20073;-91
2023/10/31 09:49:44;;;;;;;3.10;2.90;;;14.50;99.90;;;;;;5048255;28;20041;-88
2023/10/31 09:52:10;;;;;;;2.75;2.60;;;14.60;99.90;;;;;;5032946;28;20045;-91
2023/10/31 09:54:40;;;;;;;3.15;2.95;;;14.70;99.90;;;;;;5049630;28;20063;-95
2023/10/31 09:57:28;;;;;;;2.63;2.53;;;14.50;99.90;;;;;;5036880;28;20135;-96
2023/10/31 10:00:05;;;;;;;3.15;3.00;;;14.70;99.90;;;;;;5032324;28;20546;-94
2023/10/31 10:02:31;;;;;;;2.40;2.30;;;14.70;99.90;;;;;;5031909;28;20079;-89
2023/10/31 10:05:00;;;;;;;2.22;2.13;;;15.00;99.90;;;;;;5052946;28;20149;-96
2023/10/31 10:07:36;;;;;;;2.40;2.30;;;15.20;99.90;;;;;;5034658;28;20044;-93
2023/10/31 10:10:02;;;;;;;2.40;2.30;;;15.10;99.90;;;;;;5035579;28;20045;-89
2023/10/31 10:12:31;;;;;;;2.70;2.60;;;15.10;99.90;;;;;;5036860;28;20183;-95
2023/10/31 10:15:04;;;;;;;2.70;2.60;;;15.20;99.90;;;;;;5034438;28;20052;-93
2023/10/31 10:18:18;;;;;;;3.55;3.35;;;15.00;99.90;;;;;;5035668;28;20039;-92
2023/10/31 10:21:06;;;;;;;3.50;3.30;;;15.00;99.90;;;;;;5025364;28;20045;-93
2023/10/31 10:24:02;;;;;;;2.40;2.30;;;14.90;99.90;;;;;;5036556;28;20044;-96
2023/10/31 10:26:50;;;;;;;2.40;2.30;;;14.90;99.90;;;;;;5035511;28;20068;-94
2023/10/31 10:29:23;;;;;;;2.50;2.40;;;15.10;99.90;;;;;;5034741;28;20371;-94
2023/10/31 10:31:52;;;;;;;2.60;2.50;;;15.10;99.90;;;;;;5032802;28;20048;-94
2023/10/31 10:34:18;;;;;;;2.70;2.60;;;15.10;99.90;;;;;;5031102;28;20041;-94
2023/10/31 10:36:50;;;;;;;2.70;2.60;;;15.10;99.90;;;;;;5033941;28;20053;-90
2023/10/31 10:39:39;;;;;;;3.03;2.83;;;14.90;99.90;;;;;;5049458;28;20068;-95
2023/10/31 10:46:17;;;;;;;3.45;3.25;;;14.30;99.90;;;;;;5051465;28;20040;-94
2023/10/31 10:49:03;;;;;;;2.42;2.33;;;14.20;99.90;;;;;;5036725;28;20049;-95
2023/10/31 10:52:01;;;;;;;3.15;2.95;;;14.20;99.90;;;;;;5037919;28;20042;-96
2023/10/31 10:55:10;;;;;;;2.50;2.40;;;14.10;99.90;;;;;;5033606;28;20139;-91
2023/10/31 10:57:50;;;;;;;2.25;2.15;;;14.00;99.90;;;;;;5036938;28;20047;-95
2023/10/31 11:00:16;;;;;;;2.40;2.30;;;13.90;99.90;;;;;;5036056;28;20037;-92
2023/10/31 11:03:06;;;;;;;2.15;2.05;;;13.90;99.90;;;;;;5038430;28;20103;-95
2023/10/31 11:06:03;;;;;;;2.00;1.90;;;14.00;99.90;;;;;;5030992;28;20517;-96
2023/10/31 11:08:54;;;;;;;2.35;2.25;;;14.00;99.90;;;;;;5004251;28;20157;-94
2023/10/31 11:14:44;;;;;;;1.95;1.85;;;14.10;99.90;;;;;;5055114;28;20126;-91
2023/10/31 11:17:40;;;;;;;1.83;1.73;;;14.20;99.90;;;;;;5033009;28;20051;-89
2023/10/31 11:20:09;;;;;;;1.63;1.52;;;14.50;99.90;;;;;;5033043;28;20045;-92
2023/10/31 11:22:44;;;;;;;1.60;1.50;;;14.70;99.90;;;;;;5065481;28;20044;-95
2023/10/31 11:25:23;;;;;;;1.73;1.63;;;15.00;99.90;;;;;;5041986;28;20532;-87
2023/10/31 11:27:53;;;;;;;1.60;1.50;;;15.50;99.90;;;;;;5069438;28;20056;-91
2023/10/31 11:30:25;;;;;;;1.83;1.73;;;15.50;99.90;;;;;;5070915;28;20036;-89
2023/10/31 11:33:03;;;;;;;2.20;2.10;;;15.30;99.90;;;;;;5073636;28;20231;-91
2023/10/31 11:39:39;;;;;;;;;;;;;;;;;;;;;
2023/10/31 11:42:57;;;;;;;1.95;1.85;;;14.70;99.90;;;;;;5073921;28;20044;-94
2023/10/31 11:45:49;;;;;;;2.40;2.30;;;14.70;99.90;;;;;;5038198;28;20052;-93
2023/10/31 11:48:15;;;;;;;3.00;2.80;;;14.50;99.90;;;;;;5070523;28;20056;-92
2023/10/31 11:50:41;;;;;;;2.70;2.60;;;14.30;99.90;;;;;;5070117;28;20098;-93
2023/10/31 11:53:16;;;;;;;2.15;2.05;;;14.60;99.90;;;;;;5052595;28;20127;-95
2023/10/31 11:55:46;;;;;;;2.22;2.13;;;14.70;99.90;;;;;;5070449;28;20063;-92
2023/10/31 11:58:30;;;;;;;2.13;2.03;;;14.70;99.90;;;;;;5071369;28;20056;-91
2023/10/31 12:01:04;;;;;;;2.30;2.20;;;15.00;99.90;;;;;;5055431;28;20041;-92
2023/10/31 12:03:57;;;;;;;;;;;14.90;99.90;;;;;;5055370;28;20131;-94
2023/10/31 12:06:23;;;;;;;2.63;2.53;;;14.90;99.90;;;;;;5070312;28;19970;-94
2023/10/31 12:08:49;;;;;;;2.95;2.75;;;14.90;99.90;;;;;;5054795;28;20048;-88
2023/10/31 12:11:23;;;;;;;2.20;2.10;;;14.90;99.90;;;;;;5054456;28;20597;-94
2023/10/31 12:14:01;;;;;;;2.05;1.95;;;14.90;99.90;;;;;;5070946;28;20114;-92
2023/10/31 12:16:31;;;;;;;2.58;2.47;;;15.00;99.90;;;;;;5054829;28;20041;-95
2023/10/31 12:19:06;;;;;;;2.30;2.20;;;14.80;99.90;;;;;;5054990;28;20048;-96
2023/10/31 12:21:49;;;;;;;1.90;1.80;;;15.20;99.90;;;;;;5037613;28;20032;-93
2023/10/31 12:24:18;;;;;;;2.25;2.15;;;15.40;99.90;;;;;;5054162;28;20126;-96
2023/10/31 12:34:43;;;;;;;2.38;2.28;;;15.70;99.90;;;;;;5044506;28;20047;-96
2023/10/31 12:37:09;;;;;;;1.85;1.75;;;15.90;99.90;;;;;;5058704;28;20114;-96
2023/10/31 12:46:44;;;;;;;2.35;2.25;;;16.20;99.90;;;;;;5077662;28;20059;-94
2023/10/31 12:49:23;;;;;;;2.65;2.55;;;16.70;99.90;;;;;;5058106;28;20075;-95
2023/10/31 12:52:10;;;;;;;2.17;2.08;;;16.80;99.90;;;;;;5036369;28;20142;-94
2023/10/31 12:58:23;;;;;;;3.45;3.25;;;16.80;99.90;;;;;;5053516;28;20028;-93
2023/10/31 13:01:35;;;;;;;;;;;;;;;;;;;;;
2023/10/31 13:04:06;;;;;;;;;;;16.70;99.90;;;;;;5038131;28;20096;-96
2023/10/31 13:10:16;;;;;;;3.35;3.15;;;16.30;99.90;;;;;;5065367;28;20128;-95
2023/10/31 13:13:22;;;;;;;2.83;2.67;;;16.10;99.90;;;;;;5056331;28;20084;-94
2023/10/31 13:15:48;;;;;;;2.25;2.15;;;15.80;99.90;;;;;;5073171;28;20070;-93
2023/10/31 13:29:14;;;;;;;3.42;3.22;;;15.20;99.90;;;;;;5039388;28;20548;-95
2023/10/31 13:31:49;;;;;;;3.13;2.92;;;15.10;99.90;;;;;;5053236;28;20049;-91
2023/10/31 13:34:44;;;;;;;2.10;2.00;;;15.20;99.90;;;;;;5056478;28;20051;-94
2023/10/31 13:37:09;;;;;;;2.13;2.03;;;15.00;99.90;;;;;;5053526;28;20055;-93
2023/10/31 13:39:35;;;;;;;3.10;2.90;;;14.90;99.90;;;;;;5055677;28;20382;-90
2023/10/31 13:42:01;;;;;;;2.42;2.33;;;14.70;99.90;;;;;;5050616;28;20501;-88
2023/10/31 13:44:28;;;;;;;2.35;2.25;;;14.60;99.90;;;;;;5053103;28;20061;-88
2023/10/31 13:49:45;;;;;;;2.22;2.13;;;14.50;99.90;;;;;;5209187;22;20048;-93
2023/10/31 13:52:13;;;;;;;2.42;2.33;;;14.50;99.90;;;;;;5078526;28;20047;-91